createdAt,value
2017-07-19T00:01:42.771Z,57.01
2017-07-19T00:04:10.371Z,57.49
2017-07-19T00:06:37.987Z,57.89
2017-07-19T00:09:05.664Z,58.08
2017-07-19T00:11:33.268Z,57.99
2017-07-19T00:14:00.878Z,57.98
2017-07-19T00:16:28.510Z,57.98
2017-07-19T00:18:56.100Z,58.01
2017-07-19T00:21:23.718Z,57.90
2017-07-19T00:23:51.322Z,57.96
2017-07-19T00:26:18.959Z,57.94
2017-07-19T00:28:46.565Z,58.07
2017-07-19T00:31:14.216Z,58.00
2017-07-19T00:33:41.804Z,58.10
2017-07-19T00:36:09.433Z,58.63
2017-07-19T00:38:37.027Z,58.79
2017-07-19T00:41:04.647Z,59.43
2017-07-19T00:43:32.238Z,59.45
2017-07-19T00:45:59.933Z,59.80
2017-07-19T00:48:27.518Z,59.81
2017-07-19T00:50:55.168Z,59.64
2017-07-19T00:53:22.845Z,59.75
2017-07-19T00:55:50.442Z,59.64
2017-07-19T00:58:18.078Z,60.04
2017-07-19T01:00:45.738Z,60.31
2017-07-19T01:03:13.339Z,60.37
2017-07-19T01:05:40.937Z,60.83
2017-07-19T01:08:08.571Z,60.60
2017-07-19T01:10:36.165Z,60.36
2017-07-19T01:13:03.871Z,60.15
2017-07-19T01:15:31.518Z,59.92
2017-07-19T01:17:59.135Z,59.96
2017-07-19T01:20:26.755Z,60.08
2017-07-19T01:22:54.393Z,60.43
2017-07-19T01:25:21.996Z,60.18
2017-07-19T01:27:49.624Z,60.24
2017-07-19T01:30:17.215Z,60.37
2017-07-19T01:32:44.868Z,60.46
2017-07-19T01:35:12.451Z,60.40
2017-07-19T01:37:40.078Z,60.65
2017-07-19T01:40:07.662Z,60.50
2017-07-19T01:42:35.342Z,60.80
2017-07-19T01:45:02.922Z,60.65
2017-07-19T01:47:30.661Z,60.58
2017-07-19T01:49:58.263Z,60.54
2017-07-19T01:52:25.894Z,60.57
2017-07-19T01:54:53.482Z,60.76
2017-07-19T01:57:21.126Z,60.95
2017-07-19T01:59:48.725Z,60.93
2017-07-19T02:02:16.356Z,61.02
2017-07-19T02:04:43.959Z,61.11
2017-07-19T02:07:11.579Z,60.97
2017-07-19T02:09:39.182Z,60.90
2017-07-19T02:12:06.826Z,61.28
2017-07-19T02:14:34.462Z,61.75
2017-07-19T02:17:02.091Z,62.12
2017-07-19T02:19:29.713Z,62.51
2017-07-19T02:21:58.141Z,62.23
2017-07-19T02:24:25.754Z,61.95
2017-07-19T02:26:53.381Z,61.95
2017-07-19T02:29:20.971Z,62.04
2017-07-19T02:31:48.625Z,62.26
2017-07-19T02:34:16.232Z,62.37
2017-07-19T02:36:43.859Z,62.29
2017-07-19T02:39:11.470Z,62.46
2017-07-19T02:41:39.122Z,62.25
2017-07-19T02:44:06.710Z,62.14
2017-07-19T02:46:34.358Z,62.19
2017-07-19T02:49:01.963Z,62.13
2017-07-19T02:51:29.597Z,62.20
2017-07-19T02:53:57.206Z,62.39
2017-07-19T02:56:24.834Z,62.17
2017-07-19T02:58:52.443Z,62.49
2017-07-19T03:01:20.066Z,62.48
2017-07-19T03:03:47.679Z,62.39
2017-07-19T03:06:15.307Z,62.50
2017-07-19T03:08:42.903Z,62.86
2017-07-19T03:11:10.546Z,62.78
2017-07-19T03:13:38.137Z,62.94
2017-07-19T03:16:05.770Z,62.89
2017-07-19T03:18:33.373Z,63.01
2017-07-19T03:21:01.006Z,62.81
2017-07-19T03:23:28.611Z,63.01
2017-07-19T03:25:56.239Z,63.22
2017-07-19T03:28:23.830Z,63.28
2017-07-19T03:30:51.450Z,63.87
2017-07-19T03:33:19.058Z,63.64
2017-07-19T03:35:46.679Z,63.68
2017-07-19T03:38:14.359Z,63.67
2017-07-19T03:40:42.009Z,63.51
2017-07-19T03:43:09.603Z,63.81
2017-07-19T03:45:37.256Z,63.99
2017-07-19T03:48:04.859Z,64.00
2017-07-19T03:50:32.459Z,64.09
2017-07-19T03:53:00.105Z,64.15
2017-07-19T03:55:27.694Z,63.95
2017-07-19T03:57:55.331Z,64.42
2017-07-19T04:00:22.959Z,64.66
2017-07-19T04:02:50.600Z,64.67
2017-07-19T04:05:18.247Z,64.48
2017-07-19T04:07:45.874Z,64.42
2017-07-19T04:10:13.481Z,64.45
2017-07-19T04:12:41.097Z,64.29
2017-07-19T04:15:08.717Z,64.40
2017-07-19T04:17:36.378Z,64.19
2017-07-19T04:20:04.039Z,64.13
2017-07-19T04:22:31.669Z,64.04
2017-07-19T04:24:59.290Z,64.31
2017-07-19T04:27:26.943Z,64.44
2017-07-19T04:29:54.542Z,65.13
2017-07-19T04:32:22.194Z,65.03
2017-07-19T04:34:49.794Z,65.30
2017-07-19T04:37:17.418Z,65.32
2017-07-19T04:39:45.071Z,64.92
2017-07-19T04:42:12.721Z,64.57
2017-07-19T04:44:40.325Z,64.38
2017-07-19T04:47:07.933Z,64.38
2017-07-19T04:49:35.605Z,64.42
2017-07-19T04:52:03.211Z,64.26
2017-07-19T04:54:30.834Z,64.21
2017-07-19T04:56:58.470Z,64.24
2017-07-19T04:59:26.074Z,64.22
2017-07-19T05:01:53.711Z,64.06
2017-07-19T05:04:21.345Z,64.19
2017-07-19T05:06:48.934Z,64.14
2017-07-19T05:09:16.566Z,63.94
2017-07-19T05:11:44.274Z,63.58
2017-07-19T05:14:11.918Z,63.82
2017-07-19T05:16:39.519Z,63.61
2017-07-19T05:19:07.152Z,63.43
2017-07-19T05:21:34.746Z,63.46
2017-07-19T05:24:02.450Z,63.80
2017-07-19T05:26:30.098Z,63.77
2017-07-19T05:28:57.714Z,63.70
2017-07-19T05:31:25.455Z,64.10
2017-07-19T05:33:53.104Z,64.26
2017-07-19T05:36:20.696Z,64.60
2017-07-19T05:38:48.297Z,64.61
2017-07-19T05:41:15.916Z,64.62
2017-07-19T05:43:43.659Z,64.58
2017-07-19T05:46:11.277Z,64.31
2017-07-19T05:48:38.886Z,64.21
2017-07-19T05:51:06.515Z,64.28
2017-07-19T05:53:34.142Z,64.10
2017-07-19T05:56:01.767Z,63.74
2017-07-19T05:58:29.374Z,63.78
2017-07-19T06:00:57.052Z,63.38
2017-07-19T06:03:24.665Z,63.13
2017-07-19T06:05:52.294Z,63.16
2017-07-19T06:08:19.926Z,62.74
2017-07-19T06:10:47.530Z,62.59
2017-07-19T06:13:15.179Z,61.78
2017-07-19T06:15:42.802Z,61.67
2017-07-19T06:18:10.430Z,61.79
2017-07-19T06:20:38.027Z,61.68
2017-07-19T06:23:05.650Z,61.19
2017-07-19T06:25:33.241Z,60.92
2017-07-19T06:28:00.908Z,61.04
2017-07-19T06:30:28.487Z,60.88
2017-07-19T06:32:56.106Z,61.00
2017-07-19T06:35:23.695Z,60.62
2017-07-19T06:37:51.339Z,60.15
2017-07-19T06:40:18.943Z,60.43
2017-07-19T06:42:46.554Z,59.84
2017-07-19T06:45:14.162Z,59.57
2017-07-19T06:47:41.794Z,59.47
2017-07-19T06:50:09.394Z,59.25
2017-07-19T06:52:37.023Z,59.28
2017-07-19T06:55:04.622Z,59.05
2017-07-19T06:57:32.249Z,59.47
2017-07-19T06:59:59.851Z,59.21
2017-07-19T07:02:27.493Z,58.45
2017-07-19T07:04:55.089Z,58.44
2017-07-19T07:07:22.754Z,58.87
2017-07-19T07:09:50.417Z,58.17
2017-07-19T07:12:18.110Z,58.38
2017-07-19T07:14:45.745Z,58.34
2017-07-19T07:17:13.382Z,58.28
2017-07-19T07:19:40.990Z,57.87
2017-07-19T07:22:08.615Z,58.14
2017-07-19T07:24:36.239Z,57.59
2017-07-19T07:27:03.839Z,57.35
2017-07-19T07:29:31.468Z,57.33
2017-07-19T07:31:59.069Z,57.25
2017-07-19T07:34:26.698Z,57.33
2017-07-19T07:36:54.288Z,57.36
2017-07-19T07:39:21.912Z,57.16
2017-07-19T07:41:49.539Z,57.30
2017-07-19T07:44:17.174Z,57.30
2017-07-19T07:46:44.778Z,56.94
2017-07-19T07:49:12.399Z,56.65
2017-07-19T07:51:39.997Z,56.78
2017-07-19T07:54:07.617Z,56.77
2017-07-19T07:56:35.219Z,57.33
2017-07-19T07:59:02.858Z,57.28
2017-07-19T08:01:30.471Z,56.74
2017-07-19T08:03:58.083Z,56.72
2017-07-19T08:06:25.719Z,56.98
2017-07-19T08:08:53.354Z,56.33
2017-07-19T08:11:20.986Z,57.37
2017-07-19T08:13:48.614Z,56.03
2017-07-19T08:16:16.211Z,56.14
2017-07-19T08:18:43.834Z,56.80
2017-07-19T08:21:11.433Z,56.62
2017-07-19T08:23:39.180Z,56.70
2017-07-19T08:26:06.781Z,56.18
2017-07-19T08:28:34.426Z,55.05
2017-07-19T08:31:02.020Z,55.89
2017-07-19T08:33:29.660Z,55.90
2017-07-19T08:35:57.287Z,55.96
2017-07-19T08:38:24.920Z,55.00
2017-07-19T08:40:52.523Z,54.82
2017-07-19T08:43:20.146Z,53.90
2017-07-19T08:45:47.746Z,54.60
2017-07-19T08:48:15.430Z,55.07
2017-07-19T08:50:43.061Z,54.64
2017-07-19T08:53:10.691Z,53.64
2017-07-19T08:55:38.307Z,53.89
2017-07-19T08:58:05.965Z,53.71
2017-07-19T09:00:33.603Z,53.75
2017-07-19T09:03:01.223Z,53.30
2017-07-19T09:05:28.873Z,53.01
2017-07-19T09:07:56.510Z,53.16
2017-07-19T09:10:24.140Z,52.87
2017-07-19T09:12:51.738Z,52.38
2017-07-19T09:15:19.382Z,52.68
2017-07-19T09:17:47.002Z,51.92
2017-07-19T09:20:14.614Z,52.17
2017-07-19T09:22:42.206Z,51.68
2017-07-19T09:25:09.882Z,51.22
2017-07-19T09:27:37.486Z,51.32
2017-07-19T09:30:05.082Z,49.93
2017-07-19T09:32:32.711Z,51.32
2017-07-19T09:35:00.323Z,51.22
2017-07-19T09:37:27.946Z,50.87
2017-07-19T09:39:55.537Z,50.37
2017-07-19T09:42:23.183Z,50.00
2017-07-19T09:44:50.790Z,50.37
2017-07-19T09:47:18.426Z,50.27
2017-07-19T09:49:46.018Z,49.60
2017-07-19T09:52:13.647Z,48.92
2017-07-19T09:54:41.240Z,48.96
2017-07-19T09:57:08.859Z,49.05
2017-07-19T09:59:36.471Z,48.67
2017-07-19T10:02:04.103Z,49.43
2017-07-19T10:04:31.712Z,49.34
2017-07-19T10:06:59.383Z,48.05
2017-07-19T10:09:26.976Z,46.92
2017-07-19T10:11:54.587Z,45.19
2017-07-19T10:14:22.243Z,44.89
2017-07-19T10:16:49.846Z,45.25
2017-07-19T10:19:17.506Z,44.76
2017-07-19T10:21:45.100Z,44.66
2017-07-19T10:24:12.718Z,44.19
2017-07-19T10:26:40.342Z,44.40
2017-07-19T10:29:07.977Z,44.11
2017-07-19T10:31:35.634Z,43.69
2017-07-19T10:34:03.288Z,43.51
2017-07-19T10:36:30.918Z,43.10
2017-07-19T10:38:58.554Z,43.39
2017-07-19T10:41:26.155Z,43.19
2017-07-19T10:43:53.792Z,42.92
2017-07-19T10:46:21.398Z,42.43
2017-07-19T10:48:49.045Z,41.86
2017-07-19T10:51:16.637Z,42.37
2017-07-19T10:53:44.296Z,41.82
2017-07-19T10:56:11.890Z,41.64
2017-07-19T10:58:39.479Z,41.12
2017-07-19T11:01:07.087Z,40.92
2017-07-19T11:03:34.698Z,40.52
2017-07-19T11:06:02.324Z,40.28
2017-07-19T11:08:29.930Z,40.23
2017-07-19T11:10:57.571Z,40.21
2017-07-19T11:13:25.166Z,40.55
2017-07-19T11:15:52.795Z,40.03
2017-07-19T11:18:20.450Z,39.15
2017-07-19T11:20:48.060Z,39.90
2017-07-19T11:23:15.687Z,40.18
2017-07-19T11:25:43.288Z,39.18
2017-07-19T11:28:11.031Z,38.74
2017-07-19T11:30:38.624Z,38.41
2017-07-19T11:33:06.287Z,38.35
2017-07-19T11:35:33.900Z,38.48
2017-07-19T11:38:01.555Z,38.26
2017-07-19T11:40:29.185Z,38.07
2017-07-19T11:42:56.820Z,37.82
2017-07-19T11:45:24.412Z,37.40
2017-07-19T11:47:52.072Z,37.42
2017-07-19T11:50:19.726Z,37.30
2017-07-19T11:52:47.356Z,37.65
2017-07-19T11:55:14.958Z,37.83
2017-07-19T11:57:42.618Z,37.33
2017-07-19T12:00:10.255Z,37.09
2017-07-19T12:02:37.914Z,38.43
2017-07-19T12:05:05.588Z,38.02
2017-07-19T12:07:33.203Z,37.36
2017-07-19T12:10:00.823Z,37.12
2017-07-19T12:12:28.451Z,36.93
2017-07-19T12:14:56.097Z,37.20
2017-07-19T12:17:23.687Z,37.65
2017-07-19T12:19:51.337Z,38.29
2017-07-19T12:22:18.931Z,38.94
2017-07-19T12:24:46.535Z,39.20
2017-07-19T12:27:14.192Z,39.24
2017-07-19T12:29:41.854Z,38.32
2017-07-19T12:32:09.450Z,38.11
2017-07-19T12:34:37.057Z,36.87
2017-07-19T12:37:04.688Z,36.25
2017-07-19T12:39:32.284Z,35.88
2017-07-19T12:41:59.909Z,36.02
2017-07-19T12:44:27.506Z,35.86
2017-07-19T12:46:55.130Z,35.69
2017-07-19T12:49:22.747Z,35.82
2017-07-19T12:51:50.426Z,36.77
2017-07-19T12:54:18.049Z,36.22
2017-07-19T12:56:45.668Z,36.41
2017-07-19T12:59:13.278Z,37.26
2017-07-19T13:01:40.961Z,37.74
2017-07-19T13:04:08.568Z,38.83
2017-07-19T13:06:36.161Z,38.88
2017-07-19T13:09:03.783Z,39.38
2017-07-19T13:11:31.422Z,39.81
2017-07-19T13:13:59.074Z,39.98
2017-07-19T13:16:26.663Z,40.17
2017-07-19T13:18:54.302Z,40.26
2017-07-19T13:21:21.891Z,41.52
2017-07-19T13:23:49.491Z,43.76
2017-07-19T13:26:17.135Z,47.86
2017-07-19T13:28:44.775Z,48.37
2017-07-19T13:31:12.371Z,48.93
2017-07-19T13:33:40.030Z,48.32
2017-07-19T13:36:07.655Z,49.15
2017-07-19T13:38:35.259Z,50.09
2017-07-19T13:41:02.895Z,48.31
2017-07-19T13:43:30.497Z,47.09
2017-07-19T13:45:58.134Z,47.55
2017-07-19T13:48:25.743Z,48.45
2017-07-19T13:50:53.390Z,49.11
2017-07-19T13:53:21.007Z,48.83
2017-07-19T13:55:48.630Z,48.75
2017-07-19T13:58:16.226Z,51.06
2017-07-19T14:00:43.958Z,63.19
2017-07-19T14:03:11.558Z,69.39
2017-07-19T14:05:39.219Z,75.77
2017-07-19T14:08:06.825Z,85.85
2017-07-19T14:10:34.460Z,90.37
2017-07-19T14:13:02.060Z,88.63
2017-07-19T14:15:29.694Z,90.38
2017-07-19T14:17:57.319Z,91.29
2017-07-19T14:20:24.987Z,92.70
2017-07-19T14:22:52.587Z,92.33
2017-07-19T14:25:20.210Z,91.60
2017-07-19T14:27:47.849Z,89.57
2017-07-19T14:30:15.430Z,89.12
2017-07-19T14:32:43.062Z,88.46
2017-07-19T14:35:10.734Z,87.65
2017-07-19T14:37:38.367Z,87.29
2017-07-19T14:40:05.973Z,87.11
2017-07-19T14:42:33.614Z,83.96
2017-07-19T14:45:01.222Z,85.85
2017-07-19T14:47:28.856Z,86.47
2017-07-19T14:49:58.447Z,87.20
2017-07-19T14:52:26.120Z,89.20
2017-07-19T14:54:53.739Z,87.99
2017-07-19T14:57:21.403Z,88.77
2017-07-19T14:59:49.024Z,87.82
2017-07-19T15:02:16.637Z,85.87
2017-07-19T15:04:44.274Z,87.18
2017-07-19T15:07:11.884Z,87.17
2017-07-19T15:09:39.517Z,88.13
2017-07-19T15:12:07.116Z,86.97
2017-07-19T15:14:34.750Z,86.86
2017-07-19T15:17:02.359Z,85.24
2017-07-19T15:19:29.983Z,85.86
2017-07-19T15:21:58.243Z,84.11
2017-07-19T15:24:25.867Z,85.74
2017-07-19T15:26:53.486Z,85.08
2017-07-19T15:29:21.127Z,86.23
2017-07-19T15:31:48.737Z,83.51
2017-07-19T15:34:16.368Z,83.51
2017-07-19T15:36:44.002Z,83.52
2017-07-19T15:39:11.668Z,83.75
2017-07-19T15:41:39.282Z,84.45
2017-07-19T15:44:06.943Z,83.20
2017-07-19T15:46:34.566Z,83.74
2017-07-19T15:49:02.187Z,82.44
2017-07-19T15:51:29.832Z,82.73
2017-07-19T15:53:57.502Z,82.32
2017-07-19T15:56:25.120Z,81.48
2017-07-19T15:58:52.755Z,81.51
2017-07-19T16:01:20.382Z,82.04
2017-07-19T16:03:48.006Z,81.92
2017-07-19T16:06:15.610Z,83.01
2017-07-19T16:11:25.552Z,85.16
2017-07-19T16:13:53.194Z,84.64
2017-07-19T16:16:20.806Z,85.92
2017-07-19T16:18:48.471Z,85.80
2017-07-19T16:21:16.092Z,84.43
2017-07-19T16:23:43.739Z,83.96
2017-07-19T16:26:11.356Z,83.05
2017-07-19T16:28:39.056Z,80.95
2017-07-19T16:31:06.726Z,79.89
2017-07-19T16:33:35.624Z,81.02
2017-07-19T16:36:03.264Z,81.76
2017-07-19T16:38:30.944Z,78.49
2017-07-19T16:40:58.539Z,77.67
2017-07-19T16:43:26.202Z,77.09
2017-07-19T16:45:53.806Z,75.42
2017-07-19T16:48:21.495Z,74.92
2017-07-19T16:50:49.110Z,73.20
2017-07-19T16:53:16.865Z,74.31
2017-07-19T16:55:44.459Z,74.71
2017-07-19T16:58:12.104Z,74.55
2017-07-19T17:00:39.704Z,72.24
2017-07-19T17:03:07.351Z,73.38
2017-07-19T17:05:34.967Z,72.12
2017-07-19T17:08:02.600Z,72.61
2017-07-19T17:10:30.213Z,72.98
2017-07-19T17:12:57.863Z,72.44
2017-07-19T17:15:25.459Z,72.13
2017-07-19T17:17:53.088Z,72.62
2017-07-19T17:20:20.698Z,71.13
2017-07-19T17:22:48.365Z,70.84
2017-07-19T17:25:15.983Z,70.33
2017-07-19T17:27:43.667Z,70.00
2017-07-19T17:30:11.266Z,71.50
2017-07-19T17:32:38.871Z,70.44
2017-07-19T17:35:06.491Z,71.25
2017-07-19T17:37:34.133Z,69.71
2017-07-19T17:40:01.766Z,69.60
2017-07-19T17:42:29.391Z,71.28
2017-07-19T17:44:57.030Z,70.50
2017-07-19T17:47:24.653Z,70.64
2017-07-19T17:49:52.318Z,71.49
2017-07-19T17:52:19.928Z,71.92
2017-07-19T17:54:47.559Z,71.59
2017-07-19T17:57:15.184Z,71.93
2017-07-19T17:59:42.847Z,71.79
2017-07-19T18:02:10.439Z,71.38
2017-07-19T18:04:38.048Z,70.93
2017-07-19T18:07:05.691Z,70.88
2017-07-19T18:09:33.294Z,69.46
2017-07-19T18:12:00.928Z,70.54
2017-07-19T18:14:28.557Z,72.31
2017-07-19T18:16:56.182Z,74.16
2017-07-19T18:19:23.786Z,73.32
2017-07-19T18:21:51.446Z,73.74
2017-07-19T18:24:19.046Z,75.57
2017-07-19T18:26:46.679Z,75.65
2017-07-19T18:29:14.279Z,75.05
2017-07-19T18:31:41.907Z,75.70
2017-07-19T18:34:09.536Z,74.21
2017-07-19T18:36:37.162Z,74.72
2017-07-19T18:39:04.760Z,75.84
2017-07-19T18:41:32.433Z,75.58
2017-07-19T18:44:00.080Z,75.24
2017-07-19T18:46:27.739Z,76.32
2017-07-19T18:48:55.399Z,76.64
2017-07-19T18:51:23.018Z,77.02
2017-07-19T18:53:50.686Z,76.32
2017-07-19T18:56:18.299Z,76.74
2017-07-19T18:58:45.923Z,77.07
2017-07-19T19:01:13.528Z,77.93
2017-07-19T19:03:41.242Z,78.17
2017-07-19T19:06:08.846Z,78.03
2017-07-19T19:08:36.479Z,77.76
2017-07-19T19:11:04.061Z,78.10
2017-07-19T19:13:31.719Z,78.53
2017-07-19T19:15:59.336Z,78.08
2017-07-19T19:18:26.972Z,78.05
2017-07-19T19:20:54.588Z,78.19
2017-07-19T19:23:22.240Z,78.43
2017-07-19T19:25:49.927Z,78.51
2017-07-19T19:28:17.558Z,78.80
2017-07-19T19:30:45.203Z,78.77
2017-07-19T19:33:12.823Z,79.26
2017-07-19T19:35:40.459Z,78.95
2017-07-19T19:38:08.071Z,78.92
2017-07-19T19:40:35.751Z,78.70
2017-07-19T19:43:03.372Z,79.02
2017-07-19T19:45:31.024Z,78.40
2017-07-19T19:47:58.628Z,78.41
2017-07-19T19:50:26.207Z,78.61
2017-07-19T19:52:53.851Z,78.49
2017-07-19T19:55:21.455Z,78.83
2017-07-19T19:57:49.098Z,79.30
2017-07-19T20:00:16.702Z,79.11
2017-07-19T20:02:44.382Z,79.66
2017-07-19T20:05:11.978Z,79.24
2017-07-19T20:07:39.631Z,79.05
2017-07-19T20:10:07.335Z,79.57
2017-07-19T20:12:34.982Z,78.65
2017-07-19T20:15:02.581Z,79.23
2017-07-19T20:17:30.228Z,79.57
2017-07-19T20:19:57.903Z,79.52
2017-07-19T20:22:25.540Z,79.29
2017-07-19T20:24:53.187Z,79.36
2017-07-19T20:27:20.806Z,79.28
2017-07-19T20:29:48.437Z,79.28
2017-07-19T20:32:16.059Z,79.65
2017-07-19T20:34:43.720Z,79.37
2017-07-19T20:37:11.286Z,79.74
2017-07-19T20:39:38.942Z,79.64
2017-07-19T20:42:06.539Z,79.15
2017-07-19T20:44:34.160Z,79.35
2017-07-19T20:47:02.581Z,79.38
2017-07-19T20:49:30.202Z,79.29
2017-07-19T20:51:59.540Z,79.17
2017-07-19T20:54:27.202Z,79.15
2017-07-19T20:56:54.803Z,78.83
2017-07-19T20:59:22.417Z,78.77
2017-07-19T21:01:50.046Z,78.85
2017-07-19T21:04:17.755Z,78.79
2017-07-19T21:06:45.391Z,78.68
2017-07-19T21:09:12.989Z,78.99
2017-07-19T21:11:40.614Z,79.51
2017-07-19T21:14:08.222Z,79.15
2017-07-19T21:16:35.854Z,79.07
2017-07-19T21:19:03.477Z,79.02
2017-07-19T21:21:31.105Z,79.61
2017-07-19T21:23:58.739Z,79.61
2017-07-19T21:26:26.388Z,80.50
2017-07-19T21:28:53.980Z,80.95
2017-07-19T21:31:21.631Z,81.48
2017-07-19T21:33:49.252Z,81.51
2017-07-19T21:36:16.848Z,81.13
2017-07-19T21:38:44.471Z,81.28
2017-07-19T21:41:12.119Z,80.94
2017-07-19T21:43:39.718Z,80.27
2017-07-19T21:46:07.333Z,80.26
2017-07-19T21:48:34.968Z,80.16
2017-07-19T21:51:02.564Z,80.59
2017-07-19T21:53:30.351Z,80.93
2017-07-19T21:55:57.963Z,81.04
2017-07-19T21:58:25.692Z,81.38
2017-07-19T22:00:53.299Z,81.11
2017-07-19T22:03:20.983Z,81.08
2017-07-19T22:05:48.573Z,81.22
2017-07-19T22:08:16.228Z,81.10
2017-07-19T22:10:43.831Z,81.24
2017-07-19T22:13:11.461Z,81.61
2017-07-19T22:15:39.068Z,81.54
2017-07-19T22:18:06.698Z,81.55
2017-07-19T22:20:34.298Z,81.26
2017-07-19T22:23:01.943Z,80.46
2017-07-19T22:25:29.538Z,80.21
2017-07-19T22:27:57.179Z,80.53
2017-07-19T22:30:24.801Z,81.08
2017-07-19T22:32:52.462Z,80.48
2017-07-19T22:35:20.071Z,80.92
2017-07-19T22:37:47.692Z,80.65
2017-07-19T22:40:15.322Z,80.56
2017-07-19T22:42:42.911Z,80.33
2017-07-19T22:45:10.544Z,80.38
2017-07-19T22:47:38.158Z,80.27
2017-07-19T22:50:05.827Z,80.82
2017-07-19T22:52:33.474Z,80.92
2017-07-19T22:55:01.109Z,81.57
2017-07-19T22:57:28.712Z,81.83
2017-07-19T22:59:56.334Z,80.56
2017-07-19T23:02:23.932Z,80.34
2017-07-19T23:04:51.584Z,80.35
2017-07-19T23:07:19.191Z,80.64
2017-07-19T23:09:46.894Z,80.58
2017-07-19T23:12:14.519Z,81.47
2017-07-19T23:14:42.129Z,81.08
2017-07-19T23:17:09.758Z,81.01
2017-07-19T23:19:37.359Z,80.53
2017-07-19T23:22:05.006Z,80.57
2017-07-19T23:24:32.595Z,80.12
2017-07-19T23:27:00.214Z,80.08
2017-07-19T23:29:27.819Z,80.13
2017-07-19T23:31:55.479Z,80.21
2017-07-19T23:34:23.078Z,80.16
2017-07-19T23:36:50.725Z,80.36
2017-07-19T23:39:18.318Z,80.65
2017-07-19T23:41:45.955Z,81.94
2017-07-19T23:44:13.546Z,82.05
2017-07-19T23:46:41.186Z,82.21
2017-07-19T23:49:08.783Z,82.52
2017-07-19T23:51:36.418Z,82.93
2017-07-19T23:54:04.031Z,82.81
2017-07-19T23:56:31.627Z,83.29
2017-07-19T23:58:59.299Z,82.95
